Time;durP1;ratioP1;P1;durP2;ratioP2;P2;SDS_P1;SDS_P2;PMS_P1;PMS_P2;Temp;Humidity;BMP_temperature;BMP_pressure;BME280_temperature;BME280_humidity;BME280_pressure;Samples;Min_cycle;Max_cycle;Signal;HPM_P1;HPM_P2
2023/11/03 00:01:47;;;;;;;7.83;2.03;;;11.80;67.40;;;;;;788913;180;26523;-87
2023/11/03 00:04:25;;;;;;;10.93;4.90;;;11.80;67.20;;;;;;792544;180;27049;-86
2023/11/03 00:07:13;;;;;;;;;;;;;;;;;;;;;
2023/11/03 00:09:41;;;;;;;5.90;2.00;;;11.80;66.80;;;;;;766963;187;26475;-87
2023/11/03 00:12:25;;;;;;;6.37;1.87;;;11.80;67.50;;;;;;740479;189;26555;-86
2023/11/03 00:20:19;;;;;;;6.57;2.53;;;11.80;66.50;;;;;;715167;173;26533;-86
2023/11/03 00:22:52;;;;;;;6.97;2.13;;;11.80;66.80;;;;;;767812;183;26574;-86
2023/11/03 00:25:29;;;;;;;8.13;3.67;;;11.70;65.90;;;;;;779331;180;27118;-86
2023/11/03 00:27:55;;;;;;;7.50;2.00;;;11.80;66.00;;;;;;792392;179;26517;-86
2023/11/03 00:30:22;;;;;;;6.87;2.33;;;11.80;65.80;;;;;;779470;183;26414;-85
2023/11/03 00:32:49;;;;;;;5.67;3.23;;;11.70;65.40;;;;;;770230;187;26499;-86
2023/11/03 00:35:16;;;;;;;5.17;2.00;;;11.70;65.50;;;;;;758339;187;27112;-86
2023/11/03 00:37:53;;;;;;;6.00;2.07;;;11.70;65.30;;;;;;769285;186;26519;-85
2023/11/03 00:40:20;;;;;;;5.80;1.97;;;11.70;66.00;;;;;;796883;180;26483;-86
2023/11/03 00:42:46;;;;;;;7.47;2.00;;;11.70;65.90;;;;;;783251;184;26513;-86
2023/11/03 00:45:22;;;;;;;4.97;1.90;;;11.70;65.40;;;;;;779146;184;27017;-86
2023/11/03 00:47:48;;;;;;;5.33;2.00;;;11.70;65.20;;;;;;787081;180;26478;-86
2023/11/03 00:50:15;;;;;;;6.47;1.70;;;11.70;65.20;;;;;;787229;179;26992;-86
2023/11/03 00:52:46;;;;;;;4.30;1.73;;;11.70;65.30;;;;;;790238;180;27006;-87
2023/11/03 00:55:13;;;;;;;6.77;2.70;;;11.70;65.20;;;;;;788521;179;26480;-86
2023/11/03 00:57:42;;;;;;;5.13;1.80;;;11.70;65.20;;;;;;761488;186;26524;-86
2023/11/03 01:00:17;;;;;;;5.00;1.77;;;11.70;65.60;;;;;;788525;177;26452;-85
2023/11/03 01:02:43;;;;;;;4.47;1.90;;;11.70;65.20;;;;;;787121;179;26454;-86
2023/11/03 01:05:14;;;;;;;4.77;2.70;;;11.70;65.50;;;;;;758802;186;27058;-86
2023/11/03 01:07:38;;;;;;;39.10;17.30;;;11.60;65.80;;;;;;779569;183;26407;-87
2023/11/03 01:10:05;;;;;;;17.33;8.20;;;11.70;65.40;;;;;;762253;187;26500;-85
2023/11/03 01:12:32;;;;;;;5.93;2.37;;;11.60;65.90;;;;;;764468;184;27058;-87
2023/11/03 01:14:58;;;;;;;3.47;1.50;;;11.60;66.00;;;;;;794935;179;26456;-86
2023/11/03 01:17:28;;;;;;;6.70;2.13;;;11.60;65.50;;;;;;781995;183;27036;-86
2023/11/03 01:19:52;;;;;;;5.27;1.73;;;11.60;66.10;;;;;;781779;183;26470;-87
2023/11/03 01:22:19;;;;;;;7.33;4.30;;;11.60;65.30;;;;;;782525;180;27003;-88
2023/11/03 01:24:45;;;;;;;9.53;4.40;;;11.60;65.40;;;;;;788462;180;26489;-88
2023/11/03 01:27:11;;;;;;;13.53;6.60;;;11.60;65.90;;;;;;781581;183;27024;-86
2023/11/03 01:29:38;;;;;;;4.00;2.60;;;11.60;66.40;;;;;;781747;184;26471;-87
2023/11/03 01:32:04;;;;;;;11.30;6.33;;;11.60;65.90;;;;;;785034;181;26460;-87
2023/11/03 01:34:31;;;;;;;13.87;7.40;;;11.50;65.80;;;;;;760349;186;27072;-87
2023/11/03 01:36:58;;;;;;;16.40;9.37;;;11.50;66.10;;;;;;796739;180;26466;-88
2023/11/03 01:39:24;;;;;;;10.20;4.80;;;11.50;66.30;;;;;;791360;178;27012;-87
2023/11/03 01:41:51;;;;;;;33.10;16.87;;;11.50;66.70;;;;;;789675;181;26455;-86
2023/11/03 01:44:18;;;;;;;28.60;13.70;;;11.50;66.50;;;;;;790351;181;26497;-88
2023/11/03 01:46:44;;;;;;;4.53;1.80;;;11.50;66.80;;;;;;793134;180;26498;-87
2023/11/03 01:49:11;;;;;;;4.97;1.83;;;11.50;66.40;;;;;;774759;186;26419;-87
2023/11/03 01:51:38;;;;;;;2.33;1.53;;;11.50;66.50;;;;;;766131;185;27091;-87
2023/11/03 01:54:04;;;;;;;13.80;6.30;;;11.50;66.60;;;;;;771987;185;26501;-87
2023/11/03 01:56:32;;;;;;;13.17;5.97;;;11.40;67.00;;;;;;782341;180;26501;-86
2023/11/03 01:58:58;;;;;;;8.60;5.17;;;11.50;67.30;;;;;;778138;184;27050;-86
2023/11/03 02:01:27;;;;;;;3.57;1.77;;;11.40;67.10;;;;;;779089;180;26485;-85
2023/11/03 02:03:51;;;;;;;3.03;1.60;;;11.40;67.20;;;;;;759294;187;27013;-85
2023/11/03 02:06:18;;;;;;;4.33;1.60;;;11.40;67.40;;;;;;768577;184;26515;-86
2023/11/03 02:08:45;;;;;;;3.10;1.40;;;11.40;67.60;;;;;;762366;187;26536;-88
2023/11/03 02:11:11;;;;;;;4.23;1.33;;;11.40;67.90;;;;;;763126;187;26608;-88
2023/11/03 02:13:38;;;;;;;4.67;2.17;;;11.40;67.70;;;;;;763455;188;26504;-87
2023/11/03 02:16:05;;;;;;;3.60;1.67;;;11.30;67.60;;;;;;763004;187;26538;-87
2023/11/03 02:18:31;;;;;;;1.77;1.50;;;11.30;67.90;;;;;;766611;186;26593;-88
2023/11/03 02:20:58;;;;;;;4.30;1.73;;;11.30;68.20;;;;;;770326;185;26492;-86
2023/11/03 02:23:24;;;;;;;2.50;1.33;;;11.30;68.20;;;;;;771232;185;26476;-87
2023/11/03 02:25:51;;;;;;;5.27;1.80;;;11.30;68.50;;;;;;770550;185;28112;-87
2023/11/03 02:28:18;;;;;;;4.60;1.70;;;11.30;68.30;;;;;;772458;185;26508;-86
2023/11/03 02:30:44;;;;;;;4.03;1.40;;;11.30;68.60;;;;;;776213;182;26503;-88
2023/11/03 02:33:11;;;;;;;3.73;1.90;;;11.30;68.70;;;;;;766698;184;26504;-88
2023/11/03 02:35:37;;;;;;;4.47;1.90;;;11.30;68.40;;;;;;765000;188;26493;-86
2023/11/03 02:38:05;;;;;;;3.13;1.50;;;11.30;68.50;;;;;;778096;183;26555;-87
2023/11/03 02:40:31;;;;;;;3.73;1.60;;;11.20;68.40;;;;;;770756;184;27130;-86
2023/11/03 02:42:57;;;;;;;3.70;1.77;;;11.20;69.10;;;;;;770020;185;26508;-86
2023/11/03 02:45:24;;;;;;;4.03;1.57;;;11.20;69.10;;;;;;796257;177;27014;-87
2023/11/03 02:47:50;;;;;;;2.80;1.73;;;11.20;68.80;;;;;;796533;177;26431;-88
2023/11/03 02:50:17;;;;;;;3.33;1.70;;;11.20;68.50;;;;;;785628;178;26437;-87
2023/11/03 02:52:43;;;;;;;3.10;1.70;;;11.30;68.40;;;;;;796348;178;26465;-88
2023/11/03 02:55:10;;;;;;;3.03;1.83;;;11.20;68.90;;;;;;790541;176;26479;-87
2023/11/03 02:57:37;;;;;;;3.47;1.60;;;11.30;69.20;;;;;;794635;181;26495;-88
2023/11/03 03:00:04;;;;;;;3.40;1.50;;;11.30;69.30;;;;;;772794;183;26540;-86
2023/11/03 03:02:30;;;;;;;6.57;1.93;;;11.20;69.10;;;;;;787545;180;26498;-86
2023/11/03 03:04:57;;;;;;;4.93;1.90;;;11.20;69.20;;;;;;784905;181;26481;-87
2023/11/03 03:07:24;;;;;;;2.80;1.60;;;11.20;69.30;;;;;;788850;181;26490;-86
2023/11/03 03:09:50;;;;;;;9.47;4.70;;;11.10;69.20;;;;;;782286;184;26487;-87
2023/11/03 03:12:17;;;;;;;36.10;19.87;;;11.10;68.90;;;;;;784646;181;26462;-87
2023/11/03 03:14:43;;;;;;;29.17;14.57;;;11.10;69.40;;;;;;786796;181;26474;-86
2023/11/03 03:17:10;;;;;;;7.97;3.57;;;11.00;69.50;;;;;;782663;181;26489;-87
2023/11/03 03:19:36;;;;;;;5.80;2.20;;;11.00;70.00;;;;;;782560;184;26475;-86
2023/11/03 03:22:03;;;;;;;5.07;2.13;;;10.90;69.70;;;;;;786515;180;26456;-87
2023/11/03 03:24:30;;;;;;;4.17;1.70;;;10.80;70.40;;;;;;762852;187;26500;-87
2023/11/03 03:26:56;;;;;;;5.73;1.67;;;10.80;70.70;;;;;;768914;187;26511;-86
2023/11/03 03:29:23;;;;;;;4.70;1.77;;;10.80;71.30;;;;;;769949;177;26484;-86
2023/11/03 03:32:07;;;;;;;3.20;1.70;;;10.80;70.70;;;;;;768259;184;26531;-87
2023/11/03 03:34:33;;;;;;;5.23;1.80;;;10.80;70.30;;;;;;765156;185;26486;-86
2023/11/03 03:39:35;;;;;;;4.53;1.80;;;10.70;70.70;;;;;;768420;187;26585;-86
2023/11/03 03:42:02;;;;;;;4.87;1.90;;;10.70;71.20;;;;;;767380;187;26525;-87
2023/11/03 03:44:28;;;;;;;4.80;1.40;;;10.70;70.80;;;;;;762163;187;26499;-86
2023/11/03 05:29:22;;;;;;;7.07;2.20;;;9.80;78.60;;;;;;750173;171;26516;-77
2023/11/03 05:31:49;;;;;;;6.77;2.17;;;9.90;78.90;;;;;;785081;179;26516;-74
2023/11/03 05:34:19;;;;;;;6.30;2.43;;;10.60;81.20;;;;;;780880;181;26495;-77
2023/11/03 05:36:52;;;;;;;18.67;3.43;;;10.70;78.90;;;;;;772784;185;26488;-81
2023/11/03 05:43:16;;;;;;;6.53;2.23;;;10.20;75.60;;;;;;775284;183;27083;-87
2023/11/03 10:30:25;;;;;;;8.17;2.93;;;15.80;52.90;;;;;;724833;181;26524;-88
2023/11/03 10:35:27;;;;;;;6.97;3.10;;;15.30;55.70;;;;;;778641;183;27064;-89
2023/11/03 10:37:54;;;;;;;10.00;4.27;;;15.50;54.20;;;;;;778095;184;27051;-88
2023/11/03 10:40:21;;;;;;;8.77;3.00;;;15.50;54.20;;;;;;779560;180;26522;-88
2023/11/03 10:54:04;;;;;;;55.23;31.50;;;16.10;53.60;;;;;;744837;172;26459;-88
2023/11/03 10:56:31;;;;;;;43.20;21.27;;;15.50;54.20;;;;;;808580;176;26458;-87
2023/11/03 10:58:57;;;;;;;42.20;22.53;;;14.80;55.70;;;;;;808426;178;26430;-88
2023/11/03 11:01:26;;;;;;;33.23;17.47;;;15.20;55.80;;;;;;808494;178;26435;-89
2023/11/03 11:03:56;;;;;;;31.70;16.93;;;15.50;55.60;;;;;;805952;176;26427;-88
2023/11/03 11:06:41;;;;;;;35.67;19.20;;;15.60;54.40;;;;;;804181;178;26425;-87
2023/11/03 11:09:08;;;;;;;18.70;10.67;;;15.50;53.90;;;;;;804329;179;26411;-87
2023/11/03 11:11:34;;;;;;;12.23;5.47;;;14.60;56.50;;;;;;806023;176;26407;-88
2023/11/03 11:14:12;;;;;;;26.17;13.37;;;14.20;57.90;;;;;;805497;175;26459;-86
2023/11/03 11:16:39;;;;;;;21.43;8.53;;;14.10;58.60;;;;;;801453;179;26426;-86
2023/11/03 11:19:07;;;;;;;56.90;29.70;;;13.90;59.00;;;;;;801258;179;26458;-86
2023/11/03 11:21:34;;;;;;;80.87;40.90;;;14.00;59.00;;;;;;800524;176;26424;-88
2023/11/03 11:24:11;;;;;;;70.57;31.93;;;14.00;59.30;;;;;;804621;177;26424;-88
2023/11/03 11:26:40;;;;;;;34.97;16.83;;;14.20;58.80;;;;;;802904;177;26507;-87
2023/11/03 11:29:25;;;;;;;75.03;33.47;;;14.50;57.40;;;;;;804092;177;26402;-87
2023/11/03 11:31:52;;;;;;;21.73;8.13;;;14.80;57.60;;;;;;801678;176;26413;-87
2023/11/03 11:34:25;;;;;;;12.63;4.33;;;15.00;56.40;;;;;;801368;176;26430;-88
2023/11/03 11:36:54;;;;;;;11.80;5.43;;;15.10;55.30;;;;;;803090;178;26397;-88
2023/11/03 11:39:20;;;;;;;17.37;6.07;;;15.00;55.80;;;;;;805459;178;26422;-87
2023/11/03 11:41:48;;;;;;;8.63;2.43;;;14.50;56.90;;;;;;803485;176;28087;-86
2023/11/03 11:44:14;;;;;;;10.83;5.63;;;14.50;57.40;;;;;;800292;178;26571;-86
2023/11/03 11:46:40;;;;;;;10.90;5.17;;;14.30;57.10;;;;;;803914;178;26473;-87
2023/11/03 11:49:07;;;;;;;26.07;15.40;;;14.30;57.80;;;;;;801619;178;27014;-87
2023/11/03 11:57:05;;;;;;;32.47;19.20;;;14.00;59.50;;;;;;806403;177;26392;-87
2023/11/03 12:02:18;;;;;;;61.60;31.83;;;13.20;63.00;;;;;;800412;177;26450;-87
2023/11/03 12:04:47;;;;;;;95.33;48.23;;;13.10;63.10;;;;;;806170;177;27016;-86
2023/11/03 12:07:14;;;;;;;37.97;18.77;;;13.20;63.20;;;;;;807710;176;26433;-87
2023/11/03 12:26:15;;;;;;;9.83;3.40;;;14.60;58.10;;;;;;741762;175;26533;-90
2023/11/03 12:28:44;;;;;;;11.83;3.40;;;14.70;57.50;;;;;;765794;184;26466;-90
2023/11/03 12:31:13;;;;;;;25.23;13.73;;;14.90;57.30;;;;;;755959;180;26550;-89
2023/11/03 12:33:39;;;;;;;20.73;10.40;;;15.60;55.70;;;;;;745985;192;27028;-88
2023/11/03 12:36:06;;;;;;;28.50;16.93;;;15.60;54.50;;;;;;742878;188;26536;-90
2023/11/03 12:38:47;;;;;;;8.07;4.10;;;15.50;55.60;;;;;;732852;192;26535;-90
2023/11/03 12:49:37;;;;;;;9.77;2.97;;;16.50;52.20;;;;;;738709;174;26518;-90
2023/11/03 12:52:04;;;;;;;15.50;6.90;;;16.40;51.80;;;;;;805194;176;26455;-88
2023/11/03 12:54:32;;;;;;;31.20;17.13;;;16.40;51.80;;;;;;802035;178;26436;-88
2023/11/03 12:56:58;;;;;;;33.33;16.90;;;16.40;51.30;;;;;;804013;178;26447;-89
2023/11/03 12:59:33;;;;;;;33.17;20.20;;;15.50;53.00;;;;;;803439;179;26431;-88
2023/11/03 13:02:00;;;;;;;13.10;6.13;;;15.20;53.90;;;;;;788654;182;26461;-89
2023/11/03 13:04:26;;;;;;;76.40;36.33;;;14.90;55.20;;;;;;788765;182;26458;-88
2023/11/03 13:06:57;;;;;;;48.90;25.87;;;14.80;55.10;;;;;;788740;182;27015;-88
2023/11/03 13:09:24;;;;;;;33.90;17.97;;;14.50;55.40;;;;;;788411;181;26472;-88
2023/11/03 13:11:47;;;;;;;61.10;30.70;;;14.30;55.90;;;;;;788720;181;27035;-88
2023/11/03 13:14:14;;;;;;;13.30;5.27;;;14.10;55.50;;;;;;789058;182;26459;-89
2023/11/03 13:16:41;;;;;;;9.80;4.23;;;14.10;56.30;;;;;;788154;181;27026;-88
2023/11/03 13:19:07;;;;;;;18.33;8.10;;;14.30;56.60;;;;;;789983;182;26456;-88
2023/11/03 13:21:34;;;;;;;151.40;64.10;;;14.30;55.80;;;;;;790160;179;26524;-89
2023/11/03 13:24:00;;;;;;;40.33;19.87;;;14.50;55.70;;;;;;789438;178;26464;-89
2023/11/03 13:26:27;;;;;;;69.70;36.70;;;14.40;55.30;;;;;;789096;182;26480;-88
2023/11/03 13:28:54;;;;;;;27.80;18.83;;;14.20;55.60;;;;;;789241;182;26449;-88
2023/11/03 13:31:20;;;;;;;53.63;29.80;;;14.20;55.70;;;;;;789595;180;26496;-89
2023/11/03 13:33:48;;;;;;;118.97;65.70;;;14.00;55.60;;;;;;790078;180;26457;-88
2023/11/03 13:36:13;;;;;;;59.83;34.57;;;14.10;56.30;;;;;;791350;181;26975;-88
2023/11/03 13:38:41;;;;;;;11.80;4.97;;;14.00;56.50;;;;;;790673;181;26790;-89
2023/11/03 13:41:08;;;;;;;10.57;3.10;;;14.10;56.40;;;;;;790376;179;27027;-89
2023/11/03 13:43:39;;;;;;;19.43;13.27;;;14.00;56.50;;;;;;788805;181;26474;-89
2023/11/03 13:46:03;;;;;;;16.70;6.23;;;14.00;55.70;;;;;;787939;179;26470;-89
2023/11/03 13:48:29;;;;;;;49.07;27.33;;;14.20;56.00;;;;;;787836;182;26477;-88
2023/11/03 13:50:56;;;;;;;17.87;7.33;;;14.20;55.60;;;;;;788566;181;26476;-88
2023/11/03 13:53:22;;;;;;;19.07;8.43;;;14.20;55.50;;;;;;786883;182;26486;-89
2023/11/03 13:55:49;;;;;;;90.87;50.37;;;14.30;55.10;;;;;;788903;181;26445;-88
2023/11/03 13:58:16;;;;;;;85.00;40.87;;;14.20;55.50;;;;;;791156;181;26453;-89
2023/11/03 14:03:26;;;;;;;30.17;16.63;;;14.00;56.20;;;;;;786469;182;26456;-88
2023/11/03 14:05:53;;;;;;;26.37;14.53;;;13.80;55.60;;;;;;786031;182;26461;-89
2023/11/03 14:14:00;;;;;;;22.60;13.47;;;13.40;56.80;;;;;;716634;173;26537;-88
2023/11/03 14:19:21;;;;;;;69.90;34.60;;;13.40;57.20;;;;;;759888;188;26528;-88
2023/11/03 14:21:51;;;;;;;51.47;25.03;;;13.40;57.30;;;;;;765750;183;26482;-89
2023/11/03 14:44:09;;;;;;;142.13;64.87;;;13.30;57.40;;;;;;751615;187;28156;-88
2023/11/03 14:50:03;;;;;;;11.57;6.10;;;13.70;55.70;;;;;;813009;176;26416;-88
2023/11/03 15:06:33;;;;;;;16.17;6.73;;;14.30;53.30;;;;;;727536;175;27045;-88
2023/11/03 15:09:12;;;;;;;143.50;84.80;;;14.00;53.60;;;;;;766221;183;26498;-88
2023/11/03 15:11:40;;;;;;;209.97;101.07;;;13.80;54.30;;;;;;768348;184;26478;-88
2023/11/03 15:14:22;;;;;;;253.70;121.40;;;13.80;53.90;;;;;;758988;187;26515;-88
2023/11/03 15:16:59;;;;;;;173.20;95.13;;;14.00;53.90;;;;;;754285;190;28180;-88
2023/11/03 15:30:36;;;;;;;43.03;22.27;;;14.50;52.90;;;;;;749148;171;26449;-89
2023/11/03 15:33:02;;;;;;;43.20;23.20;;;14.50;53.10;;;;;;804823;178;26446;-88
2023/11/03 15:35:29;;;;;;;7.50;3.17;;;14.00;53.90;;;;;;806914;178;26447;-88
2023/11/03 15:37:55;;;;;;;14.50;5.13;;;13.20;55.20;;;;;;805509;177;26430;-89
2023/11/03 15:40:23;;;;;;;9.33;3.20;;;13.00;56.70;;;;;;810942;177;26374;-88
2023/11/03 15:42:49;;;;;;;8.53;3.73;;;12.70;57.20;;;;;;805724;177;26355;-87
2023/11/03 15:45:16;;;;;;;12.33;6.10;;;12.60;58.10;;;;;;794771;177;26459;-87
2023/11/03 15:47:46;;;;;;;33.70;17.77;;;12.50;58.40;;;;;;802599;177;26441;-88
2023/11/03 15:50:12;;;;;;;6.63;4.00;;;12.50;57.60;;;;;;804086;177;26363;-87
2023/11/03 15:52:40;;;;;;;11.67;2.77;;;12.40;58.10;;;;;;802556;178;26361;-88
2023/11/03 15:55:09;;;;;;;10.43;3.23;;;12.30;58.40;;;;;;804704;178;26397;-88
2023/11/03 15:57:36;;;;;;;43.20;19.70;;;12.10;58.90;;;;;;805017;175;26380;-87
2023/11/03 16:00:03;;;;;;;126.93;65.63;;;12.00;59.50;;;;;;806567;175;26440;-87
2023/11/03 16:02:29;;;;;;;12.87;3.00;;;11.90;60.40;;;;;;806854;176;26966;-87
2023/11/03 16:04:56;;;;;;;10.57;3.07;;;11.70;60.00;;;;;;807243;177;26352;-87
2023/11/03 16:07:23;;;;;;;9.17;3.40;;;11.60;61.10;;;;;;808696;177;26351;-88
2023/11/03 16:09:59;;;;;;;8.77;3.30;;;11.50;61.60;;;;;;807146;177;26951;-88
2023/11/03 16:12:23;;;;;;;13.33;3.90;;;11.50;62.10;;;;;;807311;177;26379;-88
2023/11/03 16:20:22;;;;;;;10.10;3.20;;;11.20;64.00;;;;;;715970;178;26533;-86
2023/11/03 16:22:49;;;;;;;12.47;3.90;;;11.10;63.20;;;;;;753477;190;26545;-87
2023/11/03 16:25:15;;;;;;;16.20;4.10;;;11.00;64.20;;;;;;757392;184;26544;-87
2023/11/03 16:27:42;;;;;;;36.23;20.70;;;11.10;65.00;;;;;;760184;188;27063;-85
2023/11/03 16:30:14;;;;;;;22.67;10.60;;;10.90;64.60;;;;;;765231;188;26663;-86
2023/11/03 16:38:44;;;;;;;11.73;3.93;;;10.70;65.30;;;;;;746116;190;27203;-86
2023/11/03 16:44:05;;;;;;;6.60;2.90;;;10.70;66.40;;;;;;726237;196;26591;-86
2023/11/03 16:46:32;;;;;;;9.37;2.90;;;10.70;66.80;;;;;;742151;191;26538;-88
2023/11/03 16:48:58;;;;;;;11.10;3.27;;;10.80;65.70;;;;;;759901;188;26557;-87
2023/11/03 16:51:25;;;;;;;9.60;3.77;;;10.80;67.10;;;;;;761616;188;28140;-86
2023/11/03 16:53:53;;;;;;;12.80;4.40;;;10.70;65.80;;;;;;761438;187;26516;-86
2023/11/03 16:56:18;;;;;;;10.83;3.93;;;10.60;65.50;;;;;;759179;188;26522;-87
2023/11/03 16:58:45;;;;;;;11.20;3.93;;;10.60;66.40;;;;;;765012;188;26509;-85
2023/11/03 17:01:12;;;;;;;11.17;3.73;;;10.50;66.10;;;;;;763124;187;27123;-87
2023/11/03 17:03:38;;;;;;;12.30;4.83;;;10.60;67.50;;;;;;744075;190;26532;-87
2023/11/03 17:06:05;;;;;;;8.90;3.77;;;10.50;67.10;;;;;;742087;192;26527;-87
2023/11/03 17:08:32;;;;;;;7.37;3.10;;;10.50;67.70;;;;;;767839;185;27066;-87
2023/11/03 17:10:59;;;;;;;7.40;3.43;;;10.50;67.10;;;;;;763576;185;26515;-88
2023/11/03 17:13:26;;;;;;;9.00;3.27;;;10.40;66.40;;;;;;766018;186;26585;-87
2023/11/03 17:15:52;;;;;;;7.43;3.00;;;10.40;67.00;;;;;;769128;184;26520;-86
2023/11/03 17:18:19;;;;;;;14.17;5.23;;;10.50;66.90;;;;;;763633;187;26506;-87
2023/11/03 17:20:45;;;;;;;7.43;3.20;;;10.50;66.50;;;;;;764109;187;26511;-87
2023/11/03 17:23:12;;;;;;;14.67;5.87;;;10.40;67.10;;;;;;764309;187;26507;-87
2023/11/03 17:25:39;;;;;;;8.97;3.40;;;10.40;66.80;;;;;;762593;187;26508;-86
2023/11/03 17:28:11;;;;;;;39.10;17.23;;;10.40;67.00;;;;;;761696;187;26494;-87
2023/11/03 17:30:33;;;;;;;18.47;7.43;;;10.30;67.40;;;;;;762482;187;26527;-87
2023/11/03 17:33:00;;;;;;;10.63;3.30;;;10.30;68.00;;;;;;756479;187;27045;-86
2023/11/03 17:35:26;;;;;;;10.83;3.00;;;10.30;67.70;;;;;;758469;187;26494;-86
2023/11/03 17:37:54;;;;;;;35.47;16.90;;;10.40;67.80;;;;;;748581;190;26488;-86
2023/11/03 17:40:22;;;;;;;15.17;7.33;;;10.30;66.70;;;;;;756837;186;26524;-85
2023/11/03 17:42:49;;;;;;;10.67;3.20;;;10.30;66.70;;;;;;758385;188;26500;-88
2023/11/03 17:45:16;;;;;;;8.63;3.20;;;10.30;67.50;;;;;;761078;188;27076;-86
2023/11/03 17:47:40;;;;;;;8.20;3.80;;;10.30;67.50;;;;;;761064;188;26516;-84
2023/11/03 17:50:21;;;;;;;11.50;6.93;;;10.20;67.70;;;;;;758650;187;26577;-85
2023/11/03 17:52:47;;;;;;;44.10;21.20;;;10.10;67.50;;;;;;761152;186;27078;-85
2023/11/03 17:55:14;;;;;;;11.93;4.20;;;10.00;67.70;;;;;;762348;188;26495;-85
2023/11/03 17:57:42;;;;;;;7.93;3.83;;;10.00;68.60;;;;;;755139;187;26518;-86
2023/11/03 18:00:08;;;;;;;10.33;3.43;;;10.00;68.50;;;;;;762689;187;26528;-86
2023/11/03 18:02:34;;;;;;;7.97;2.77;;;9.90;69.60;;;;;;764466;187;28185;-87
2023/11/03 18:05:01;;;;;;;11.13;3.53;;;10.00;68.90;;;;;;765581;188;26509;-87
2023/11/03 18:07:27;;;;;;;10.67;3.23;;;10.00;68.20;;;;;;763344;187;26520;-87
2023/11/03 18:09:54;;;;;;;13.00;4.10;;;9.90;70.10;;;;;;762766;187;27051;-87
2023/11/03 18:12:20;;;;;;;12.60;5.13;;;9.90;70.20;;;;;;758661;188;26532;-86
2023/11/03 18:14:47;;;;;;;9.53;4.23;;;9.80;70.50;;;;;;759477;184;26556;-86
2023/11/03 18:17:14;;;;;;;16.73;6.90;;;9.70;70.80;;;;;;767319;183;26495;-88
2023/11/03 18:19:40;;;;;;;10.40;3.50;;;9.80;70.80;;;;;;765685;184;26526;-85
2023/11/03 18:22:07;;;;;;;17.23;7.63;;;9.80;71.00;;;;;;766621;186;27048;-84
2023/11/03 18:24:33;;;;;;;7.80;4.50;;;9.80;71.10;;;;;;766307;188;26493;-86
2023/11/03 18:27:00;;;;;;;9.30;3.40;;;9.70;71.00;;;;;;764178;188;26523;-85
2023/11/03 18:29:27;;;;;;;11.63;5.00;;;9.70;71.40;;;;;;758949;187;26546;-85
2023/11/03 18:31:53;;;;;;;10.00;4.47;;;9.70;72.20;;;;;;762783;187;26526;-84
2023/11/03 18:34:20;;;;;;;8.27;3.47;;;9.70;71.80;;;;;;763374;187;27180;-86
2023/11/03 18:36:48;;;;;;;9.60;3.87;;;9.70;71.40;;;;;;765053;187;26493;-86
2023/11/03 18:39:13;;;;;;;9.57;3.37;;;9.60;71.50;;;;;;760983;187;27160;-88
2023/11/03 18:41:40;;;;;;;7.73;3.27;;;9.70;71.70;;;;;;760428;187;26539;-85
2023/11/03 18:44:06;;;;;;;15.20;3.13;;;9.70;71.80;;;;;;764206;187;26492;-86
2023/11/03 18:46:33;;;;;;;10.13;3.97;;;9.60;71.30;;;;;;763573;187;26517;-86
2023/11/03 18:48:59;;;;;;;12.20;3.30;;;9.60;71.80;;;;;;756321;187;26502;-86
2023/11/03 18:51:26;;;;;;;9.03;3.93;;;9.60;72.30;;;;;;764051;187;27089;-85
2023/11/03 18:53:52;;;;;;;9.17;3.30;;;9.50;72.30;;;;;;756383;188;26507;-86
2023/11/03 18:56:22;;;;;;;8.17;3.37;;;9.60;72.60;;;;;;755907;189;28098;-86
2023/11/03 18:58:46;;;;;;;9.47;3.47;;;9.60;71.90;;;;;;758018;188;26491;-86
2023/11/03 19:01:13;;;;;;;16.27;7.43;;;9.60;72.60;;;;;;764012;188;26546;-86
2023/11/03 19:03:39;;;;;;;10.33;4.10;;;9.50;72.70;;;;;;759303;185;26593;-85
2023/11/03 19:06:06;;;;;;;7.57;4.03;;;9.40;72.40;;;;;;761078;187;26505;-86
2023/11/03 19:08:32;;;;;;;11.30;5.03;;;9.50;73.20;;;;;;764504;187;26551;-86
2023/11/03 19:11:00;;;;;;;11.67;5.03;;;9.60;72.10;;;;;;763602;187;26545;-85
2023/11/03 19:13:25;;;;;;;11.30;3.50;;;9.60;72.40;;;;;;757842;188;26544;-86
2023/11/03 19:15:52;;;;;;;10.30;3.90;;;9.60;72.00;;;;;;759437;187;27070;-85
2023/11/03 19:18:19;;;;;;;10.50;3.50;;;9.60;71.90;;;;;;762486;188;26518;-86
2023/11/03 19:20:45;;;;;;;10.07;3.27;;;9.60;72.50;;;;;;762771;187;26552;-85
2023/11/03 19:23:12;;;;;;;8.67;3.83;;;9.50;72.60;;;;;;764418;188;26513;-85
2023/11/03 19:25:41;;;;;;;8.63;3.47;;;9.50;72.60;;;;;;762507;187;26514;-86
2023/11/03 19:28:07;;;;;;;13.27;3.67;;;9.40;73.00;;;;;;762412;187;26646;-85
2023/11/03 19:30:41;;;;;;;18.30;5.20;;;9.50;73.20;;;;;;756662;186;26518;-85
2023/11/03 19:33:09;;;;;;;8.90;3.90;;;9.50;74.00;;;;;;758033;187;26498;-85
2023/11/03 19:35:43;;;;;;;10.57;3.70;;;9.50;73.40;;;;;;762210;187;26895;-85
2023/11/03 19:38:05;;;;;;;8.20;3.40;;;9.50;73.40;;;;;;762784;188;26487;-85
2023/11/03 19:43:17;;;;;;;8.90;3.13;;;9.50;73.30;;;;;;727551;182;26606;-86
2023/11/03 19:45:47;;;;;;;5.47;3.40;;;9.50;72.70;;;;;;793539;181;26471;-87
2023/11/03 19:48:21;;;;;;;9.13;3.40;;;9.50;73.20;;;;;;789421;180;26466;-85
2023/11/03 19:53:32;;;;;;;7.53;3.10;;;9.50;73.00;;;;;;781653;183;26470;-85
2023/11/03 20:01:13;;;;;;;7.90;3.53;;;9.60;73.20;;;;;;791261;180;26536;-86
2023/11/03 20:03:46;;;;;;;8.60;3.60;;;9.60;72.80;;;;;;781387;183;27224;-86
2023/11/03 20:06:20;;;;;;;11.83;4.77;;;9.60;73.20;;;;;;787308;181;26478;-87
2023/11/03 20:08:55;;;;;;;6.57;3.23;;;9.70;73.50;;;;;;787002;181;27038;-86
2023/11/03 20:14:23;;;;;;;8.27;3.33;;;9.60;72.30;;;;;;783415;180;26470;-87
2023/11/03 20:17:00;;;;;;;8.97;3.30;;;9.60;72.60;;;;;;790970;180;26535;-85
2023/11/03 20:33:19;;;;;;;6.07;2.93;;;9.70;72.40;;;;;;780648;183;27153;-84
2023/11/03 20:35:41;;;;;;;4.97;3.13;;;9.80;72.00;;;;;;773622;183;26504;-87
2023/11/03 20:38:08;;;;;;;6.13;3.20;;;9.70;72.40;;;;;;771808;184;26498;-85
2023/11/03 20:40:35;;;;;;;8.60;2.73;;;9.70;72.80;;;;;;767730;183;26497;-85
2023/11/03 20:43:02;;;;;;;7.17;3.03;;;9.70;72.80;;;;;;779183;184;26494;-85
2023/11/03 20:45:35;;;;;;;8.07;3.17;;;9.70;72.90;;;;;;763268;187;26490;-87
2023/11/03 20:48:06;;;;;;;12.30;7.30;;;9.70;74.00;;;;;;775205;183;26529;-85
2023/11/03 20:50:39;;;;;;;20.50;13.13;;;9.80;73.90;;;;;;764319;184;27137;-86
2023/11/03 20:53:05;;;;;;;17.23;8.83;;;9.80;74.30;;;;;;768666;183;26511;-85
2023/11/03 20:55:48;;;;;;;10.50;6.83;;;9.80;74.40;;;;;;777580;184;26489;-85
2023/11/03 20:58:15;;;;;;;9.73;4.87;;;9.80;74.50;;;;;;766234;184;26506;-86
2023/11/03 21:00:41;;;;;;;8.33;4.07;;;9.80;74.60;;;;;;765741;183;26529;-85
2023/11/03 21:03:08;;;;;;;13.27;4.00;;;9.80;74.90;;;;;;769747;184;26492;-85
2023/11/03 21:05:35;;;;;;;12.33;3.97;;;9.90;75.00;;;;;;762771;183;26527;-85
2023/11/03 21:08:01;;;;;;;11.30;4.07;;;9.80;74.20;;;;;;772770;184;26485;-85
2023/11/03 21:10:27;;;;;;;8.80;3.80;;;9.80;74.30;;;;;;772334;183;26493;-86
2023/11/03 21:12:54;;;;;;;7.73;3.00;;;9.80;74.90;;;;;;764744;185;26515;-86
2023/11/03 21:15:21;;;;;;;8.53;3.70;;;9.80;74.40;;;;;;769198;184;26494;-84
2023/11/03 21:17:47;;;;;;;9.30;3.30;;;9.70;74.90;;;;;;776655;183;26469;-86
2023/11/03 21:20:22;;;;;;;5.90;3.27;;;9.70;75.20;;;;;;777347;184;26479;-88
2023/11/03 21:22:49;;;;;;;6.60;3.40;;;9.60;75.90;;;;;;774129;180;26504;-88
2023/11/03 21:25:16;;;;;;;9.37;3.30;;;9.60;76.20;;;;;;766410;181;26469;-86
2023/11/03 21:27:43;;;;;;;5.53;2.80;;;9.60;76.20;;;;;;763703;184;26480;-88
2023/11/03 21:30:17;;;;;;;5.23;2.97;;;9.70;75.70;;;;;;764837;177;26487;-90
2023/11/03 21:32:47;;;;;;;7.23;3.27;;;9.60;75.90;;;;;;780863;181;26561;-86
2023/11/03 21:35:18;;;;;;;7.20;3.30;;;9.50;76.50;;;;;;781115;183;26465;-85
2023/11/03 21:37:46;;;;;;;9.47;3.60;;;9.40;77.20;;;;;;785885;182;26461;-88
2023/11/03 21:40:18;;;;;;;10.37;3.83;;;9.30;77.70;;;;;;781612;180;26483;-86
2023/11/03 21:42:49;;;;;;;12.10;3.17;;;9.40;78.20;;;;;;777755;184;26999;-86
2023/11/03 21:45:34;;;;;;;6.57;2.90;;;9.30;78.30;;;;;;778010;184;26992;-85
2023/11/03 21:48:26;;;;;;;6.57;2.90;;;9.30;78.40;;;;;;778562;182;27060;-86
2023/11/03 21:51:10;;;;;;;9.07;3.10;;;9.30;78.50;;;;;;778005;184;26483;-86
2023/11/03 21:56:23;;;;;;;5.30;2.80;;;9.30;78.10;;;;;;779038;183;26403;-87
2023/11/03 22:01:26;;;;;;;7.57;3.03;;;9.20;78.70;;;;;;779186;184;26456;-88